Flight Track Log - Related Links

Times and Time Zones

All times are in EDT time to prevent confusion due to time zone crossing. See the SKW5516 flight status page for this flight to view local times or setup timezone preferences in your user account.

Time Position Orientation Groundspeed Altitude Reporting Facility
EDT Latitude Longitude Course Direction KTS MPH feet Rate Location/Type
Sat 07:19:00 PM 36.6072 -119.6375 159° South  Level Estimated
Sat 07:20:00 PM 36.5508 -119.6106 159° South  Level Estimated
Sat 07:21:00 PM 36.4943 -119.5837 159° South  Level Estimated
Sat 07:22:00 PM 36.4379 -119.5568 159° South  Level Estimated
Sat 07:23:00 PM 36.3815 -119.5299 159° South  Level Estimated
Sat 07:24:00 PM 36.3250 -119.5031 159° South  Level Estimated
Sat 07:25:00 PM 36.2686 -119.4764 159° South  Level Estimated
Sat 07:26:00 PM 36.2121 -119.4497 159° South  Level Estimated
Sat 07:27:00 PM 36.1556 -119.4230 159° South  Level Estimated
Sat 07:28:00 PM 36.0992 -119.3963 159° South  Level Estimated
Sat 07:29:00 PM 36.0427 -119.3697 159° South  Level Estimated
Sat 07:30:00 PM 35.9862 -119.3431 159° South  Level Estimated
Sat 07:31:00 PM 35.9297 -119.3166 159° South  Level Estimated
Sat 07:32:00 PM 35.8732 -119.2901 159° South  Level Estimated
Sat 07:33:00 PM 35.8167 -119.2637 159° South  Level Estimated
Sat 07:34:00 PM 35.7602 -119.2373 159° South  Level Estimated
Sat 07:35:00 PM 35.7037 -119.2109 159° South  Level Estimated
Sat 07:36:00 PM 35.6472 -119.1845 159° South  Level Estimated
Sat 07:37:00 PM 35.5907 -119.1582 159° South  Level Estimated
Sat 07:38:00 PM 35.5341 -119.1320 159° South  Level Estimated
Sat 07:39:00 PM 35.4776 -119.1057 159° South  Level Estimated
Sat 07:40:00 PM 35.4211 -119.0795 159° South  Level Estimated
Sat 07:41:00 PM 35.3645 -119.0534 159° South  Level Estimated
Sat 07:42:00 PM 35.3080 -119.0273 159° South  Level Estimated
Sat 07:43:00 PM 35.2514 -119.0012 159° South  Level Estimated
Sat 07:44:00 PM 35.1948 -118.9751 159° South  Level Estimated
Sat 07:45:00 PM 35.1383 -118.9491 159° South  Level Estimated
Sat 07:46:00 PM 35.0817 -118.9231 159° South  Level Estimated
Sat 07:47:00 PM 35.0251 -118.8972 159° South  Level Estimated
Sat 07:48:00 PM 34.9685 -118.8713 159° South  Level Estimated
Sat 07:49:00 PM 34.9119 -118.8454 159° South  Level Estimated
Sat 07:50:00 PM 34.8554 -118.8196 159° South  Level Estimated
Sat 07:51:00 PM 34.7988 -118.7938 159° South  Level Estimated
Sat 07:52:00 PM 34.7421 -118.7680 159° South  Level Estimated
Sat 07:53:00 PM 34.6855 -118.7423 160° South  Level Estimated
Sat 07:54:00 PM 34.6289 -118.7166 160° South  Level Estimated
Sat 07:55:00 PM 34.5723 -118.6909 160° South  Level Estimated
Sat 07:56:00 PM 34.5157 -118.6653 160° South  Level Estimated
Sat 07:57:00 PM 34.4590 -118.6397 160° South  Level Estimated
Sat 07:58:00 PM 34.4024 -118.6142 160° South  Level Estimated
Sat 07:59:00 PM 34.3457 -118.5887 160° South  Level Estimated
Sat 08:00:00 PM 34.2891 -118.5632 160° South  Level Estimated
Sat 08:01:00 PM 34.2324 -118.5377 160° South  Level Estimated
Sat 08:02:00 PM 34.1758 -118.5123 160° South  Level Estimated
Sat 08:03:00 PM 34.1191 -118.4870 160° South  Level Estimated
Sat 08:04:00 PM 34.0625 -118.4616 160° South  Level Estimated
Sat 08:05:00 PM 34.0058 -118.4363 160° South  Level Estimated
Sat 08:06:00 PM 33.9491 -118.4110 160° South  Level Estimated
Sat 08:07:00 PM 33.9425 -118.4081 160° South  Level Estimated
Sat 08:08:00 PM 33.9425 -118.4081 164° South  Level Estimated
Sat 08:09:00 PM 33.9425 -118.4081 164° South  Level Estimated

Login

Don't have an account? Register now (free) for customized features, flight alerts, and more!